Time;durP1;ratioP1;P1;durP2;ratioP2;P2;SDS_P1;SDS_P2;PMS_P1;PMS_P2;Temp;Humidity;BMP_temperature;BMP_pressure;BME280_temperature;BME280_humidity;BME280_pressure;Samples;Min_cycle;Max_cycle;Signal;HPM_P1;HPM_P2
2022/12/15 00:39:58;;;;;;;14.60;10.87;;;-0.80;88.80;;;;;;937049;152;27466;-77
2022/12/15 00:42:16;;;;;;;18.63;11.47;;;-0.70;88.90;;;;;;938454;152;27347;-78
2022/12/15 00:44:42;;;;;;;13.50;10.87;;;-0.70;88.80;;;;;;934739;152;27298;-77
2022/12/15 00:47:09;;;;;;;16.43;11.67;;;-0.60;88.80;;;;;;930675;149;27445;-77
2022/12/15 01:22:38;;;;;;;19.90;11.60;;;-0.40;88.00;;;;;;938335;149;27269;-77
2022/12/15 01:25:04;;;;;;;15.73;11.83;;;-0.40;87.70;;;;;;939921;149;27348;-78
2022/12/15 01:27:31;;;;;;;17.43;11.67;;;-0.40;87.50;;;;;;939254;149;27475;-78
2022/12/15 01:29:58;;;;;;;17.33;12.53;;;-0.40;87.50;;;;;;939703;149;27299;-77
2022/12/15 01:32:24;;;;;;;15.37;11.80;;;-0.50;87.30;;;;;;939436;149;27324;-77
2022/12/15 01:34:51;;;;;;;17.53;12.03;;;-0.50;87.40;;;;;;939633;149;27425;-77
2022/12/15 01:37:17;;;;;;;14.67;10.97;;;-0.50;87.40;;;;;;939168;149;27969;-77
2022/12/15 01:42:28;;;;;;;16.10;12.10;;;-0.60;87.30;;;;;;939839;149;27552;-79
2022/12/15 01:44:55;;;;;;;18.20;12.10;;;-0.60;87.30;;;;;;939754;149;27331;-79
2022/12/15 01:47:22;;;;;;;16.00;11.87;;;-0.60;87.40;;;;;;910328;152;27443;-77
2022/12/15 01:49:48;;;;;;;15.80;11.60;;;-0.70;87.50;;;;;;924947;151;27402;-77
2022/12/15 01:52:15;;;;;;;20.40;12.10;;;-0.70;87.60;;;;;;937666;151;27388;-77
2022/12/15 01:54:42;;;;;;;16.97;10.80;;;-0.70;87.70;;;;;;942025;151;27280;-77
2022/12/15 01:57:14;;;;;;;17.93;12.23;;;-0.70;87.80;;;;;;941335;151;27298;-77
2022/12/15 01:59:42;;;;;;;17.73;11.87;;;-0.70;88.00;;;;;;942013;151;27875;-79
2022/12/15 02:02:07;;;;;;;16.33;11.70;;;-0.80;87.90;;;;;;941868;149;27347;-79
2022/12/15 02:04:34;;;;;;;15.33;11.23;;;-0.80;87.80;;;;;;927493;151;27337;-79
2022/12/15 02:07:00;;;;;;;13.90;10.17;;;-0.80;87.80;;;;;;927429;153;27419;-79
2022/12/15 02:09:27;;;;;;;14.13;10.27;;;-0.80;87.80;;;;;;945223;151;27519;-79
2022/12/15 02:12:27;;;;;;;14.73;10.60;;;-0.80;87.70;;;;;;941583;149;27357;-79
2022/12/15 02:15:31;;;;;;;16.13;10.57;;;-0.90;87.60;;;;;;925496;151;27440;-77
2022/12/15 02:18:04;;;;;;;15.03;9.13;;;-0.90;87.70;;;;;;945222;151;27309;-77
2022/12/15 02:20:36;;;;;;;15.47;10.40;;;-1.00;88.00;;;;;;946335;151;27748;-77
2022/12/15 02:23:28;;;;;;;15.37;10.23;;;-1.00;87.50;;;;;;929417;153;27275;-77
2022/12/15 02:26:06;;;;;;;16.20;11.10;;;-1.00;87.80;;;;;;945341;151;27406;-78
2022/12/15 02:28:51;;;;;;;15.67;10.37;;;-1.00;87.80;;;;;;945673;148;27771;-78
2022/12/15 02:31:51;;;;;;;14.17;10.67;;;-1.10;87.80;;;;;;946978;151;27428;-78
2022/12/15 02:34:32;;;;;;;15.77;11.10;;;-1.10;87.80;;;;;;926500;153;27408;-78
2022/12/15 02:36:59;;;;;;;15.53;10.90;;;-1.10;87.80;;;;;;928829;153;27392;-78
2022/12/15 02:39:25;;;;;;;15.13;10.83;;;-1.20;87.80;;;;;;926718;153;27306;-77
2022/12/15 02:41:52;;;;;;;18.47;12.27;;;-1.20;87.90;;;;;;945788;148;27305;-78
2022/12/15 02:44:24;;;;;;;15.83;11.60;;;-1.20;87.90;;;;;;945998;151;27432;-77
2022/12/15 02:46:54;;;;;;;14.80;11.73;;;-1.20;87.90;;;;;;943961;151;27304;-77
2022/12/15 02:49:38;;;;;;;16.47;11.50;;;-1.20;87.90;;;;;;939229;148;27430;-78
2022/12/15 02:52:14;;;;;;;15.53;11.40;;;-1.30;88.70;;;;;;941219;148;27302;-78
2022/12/15 02:54:43;;;;;;;19.70;11.30;;;-1.30;88.00;;;;;;928066;148;27424;-78
2022/12/15 02:57:24;;;;;;;15.97;11.53;;;-1.30;88.10;;;;;;940538;149;27387;-78
2022/12/15 03:00:03;;;;;;;16.07;11.50;;;-1.30;88.10;;;;;;936959;149;27321;-78
2022/12/15 03:02:29;;;;;;;16.37;11.40;;;-1.30;88.10;;;;;;940829;149;27446;-78
2022/12/15 03:04:56;;;;;;;14.80;10.63;;;-1.30;87.90;;;;;;940460;149;27369;-78
2022/12/15 03:07:23;;;;;;;15.33;11.43;;;-1.40;87.80;;;;;;943552;149;27353;-77
2022/12/15 03:09:49;;;;;;;17.80;11.93;;;-1.40;87.80;;;;;;940750;149;27340;-77
2022/12/15 03:12:16;;;;;;;18.00;11.70;;;-1.40;87.90;;;;;;942097;149;27406;-77
2022/12/15 03:14:43;;;;;;;15.93;12.10;;;-1.40;87.80;;;;;;942169;149;27383;-77
2022/12/15 03:17:09;;;;;;;17.40;11.13;;;-1.50;87.70;;;;;;940969;149;27850;-77
2022/12/15 03:19:35;;;;;;;18.80;11.57;;;-1.50;87.60;;;;;;940973;149;27457;-77
2022/12/15 03:22:03;;;;;;;20.03;12.57;;;-1.50;87.70;;;;;;942314;149;27284;-77
2022/12/15 03:24:29;;;;;;;16.17;11.93;;;-1.60;87.60;;;;;;942541;149;27408;-81
2022/12/15 03:26:55;;;;;;;19.10;12.60;;;-1.60;87.60;;;;;;943128;149;27603;-80
2022/12/15 03:29:22;;;;;;;20.63;12.70;;;-1.60;87.70;;;;;;942369;149;27317;-79
2022/12/15 03:31:48;;;;;;;21.40;12.30;;;-1.70;87.80;;;;;;942522;149;27376;-81
2022/12/15 03:34:15;;;;;;;17.07;11.40;;;-1.70;87.90;;;;;;943564;149;27402;-80
2022/12/15 03:36:41;;;;;;;17.67;11.50;;;-1.70;87.90;;;;;;941318;149;27315;-81
2022/12/15 03:39:08;;;;;;;16.60;11.00;;;-1.80;88.10;;;;;;943534;148;27339;-80
2022/12/15 03:41:35;;;;;;;14.10;10.23;;;-1.80;88.20;;;;;;941731;151;27397;-80
2022/12/15 03:44:01;;;;;;;20.93;11.93;;;-1.80;88.20;;;;;;943390;151;27432;-78
2022/12/15 03:46:28;;;;;;;17.13;11.60;;;-1.80;88.30;;;;;;942073;150;27359;-78
2022/12/15 03:48:54;;;;;;;18.00;11.03;;;-1.90;88.20;;;;;;947619;146;27343;-81
2022/12/15 03:51:21;;;;;;;16.23;11.40;;;-1.90;88.20;;;;;;957871;146;27298;-80
2022/12/15 03:53:48;;;;;;;18.03;12.37;;;-1.90;88.30;;;;;;958195;146;27291;-80
2022/12/15 03:56:14;;;;;;;15.63;11.27;;;-1.90;88.40;;;;;;947652;148;27305;-80
2022/12/15 03:58:41;;;;;;;18.20;11.03;;;-1.90;88.50;;;;;;946659;148;27352;-80
2022/12/15 04:01:22;;;;;;;15.67;11.00;;;-1.90;88.70;;;;;;947245;148;27347;-80
2022/12/15 04:03:49;;;;;;;15.97;11.03;;;-1.90;88.80;;;;;;945825;148;27324;-81
2022/12/15 04:06:15;;;;;;;16.30;12.07;;;-1.90;88.80;;;;;;949011;148;27366;-80
2022/12/15 04:08:42;;;;;;;16.47;11.27;;;-1.90;89.00;;;;;;945915;148;27341;-80
2022/12/15 04:11:09;;;;;;;16.97;11.70;;;-1.90;89.10;;;;;;947860;148;27356;-78
2022/12/15 04:13:35;;;;;;;18.53;12.03;;;-1.90;89.20;;;;;;944922;148;27320;-80
2022/12/15 04:16:02;;;;;;;16.70;11.40;;;-1.90;89.30;;;;;;947361;148;28178;-81
2022/12/15 04:18:28;;;;;;;17.40;11.43;;;-1.90;89.50;;;;;;944713;148;27424;-80
2022/12/15 04:20:55;;;;;;;16.73;12.07;;;-1.80;89.50;;;;;;944909;148;27880;-80
2022/12/15 04:23:22;;;;;;;18.97;12.07;;;-1.80;89.60;;;;;;947078;148;27413;-79
2022/12/15 05:31:57;;;;;;;14.50;10.50;;;-1.80;89.10;;;;;;948314;148;27403;-80
2022/12/15 05:34:22;;;;;;;16.37;11.13;;;-1.80;89.10;;;;;;955938;146;27346;-81
2022/12/15 05:36:48;;;;;;;20.00;10.63;;;-1.80;89.00;;;;;;960143;146;27408;-80
2022/12/15 05:39:15;;;;;;;16.63;10.93;;;-1.80;89.00;;;;;;934122;149;27423;-78
2022/12/15 05:41:41;;;;;;;17.37;11.23;;;-1.80;89.00;;;;;;950185;147;27367;-81
2022/12/15 05:44:08;;;;;;;14.43;10.57;;;-1.80;88.90;;;;;;948328;148;27301;-81
2022/12/15 05:46:35;;;;;;;15.17;11.47;;;-1.80;88.80;;;;;;941949;149;27267;-80
2022/12/15 05:49:04;;;;;;;19.03;12.63;;;-1.80;88.80;;;;;;959155;146;27407;-80
2022/12/15 05:51:30;;;;;;;17.43;11.93;;;-1.80;88.70;;;;;;955086;146;27533;-81
2022/12/15 05:53:57;;;;;;;15.10;10.90;;;-1.80;88.70;;;;;;947203;148;27342;-80
2022/12/15 05:56:24;;;;;;;17.80;12.20;;;-1.80;88.60;;;;;;948622;148;27304;-80
2022/12/15 05:58:50;;;;;;;18.30;12.47;;;-1.80;88.70;;;;;;945338;148;27305;-80
2022/12/15 06:01:17;;;;;;;17.47;11.77;;;-1.80;88.60;;;;;;948180;148;27254;-80
2022/12/15 06:03:43;;;;;;;17.13;11.63;;;-1.90;89.10;;;;;;947780;148;27332;-79
2022/12/15 06:06:10;;;;;;;18.40;11.47;;;-1.80;88.50;;;;;;946418;148;27374;-81
2022/12/15 06:08:37;;;;;;;17.23;12.57;;;-1.90;88.50;;;;;;945158;149;27369;-81
2022/12/15 06:11:03;;;;;;;19.13;13.60;;;-1.90;88.20;;;;;;940378;149;27311;-80
2022/12/15 06:13:35;;;;;;;20.60;12.77;;;-1.90;88.20;;;;;;956378;146;27857;-80
2022/12/15 06:16:02;;;;;;;17.80;12.20;;;-2.00;88.10;;;;;;954265;146;27393;-81
2022/12/15 06:18:28;;;;;;;20.77;12.67;;;-2.00;88.10;;;;;;942225;149;27359;-81
2022/12/15 06:20:58;;;;;;;19.77;13.00;;;-2.00;87.90;;;;;;955740;146;27253;-80
2022/12/15 06:23:24;;;;;;;20.57;12.87;;;-2.00;87.90;;;;;;956482;146;27362;-83
2022/12/15 06:25:51;;;;;;;16.37;12.17;;;-2.10;87.90;;;;;;956350;146;27372;-84
2022/12/15 06:28:22;;;;;;;18.33;11.17;;;-2.20;87.90;;;;;;957037;146;27287;-83
2022/12/15 06:30:44;;;;;;;19.47;13.60;;;-2.20;87.90;;;;;;947520;148;27388;-83
2022/12/15 06:33:10;;;;;;;17.77;12.20;;;-2.20;88.20;;;;;;960192;146;27384;-83
2022/12/15 06:35:37;;;;;;;20.07;13.17;;;-2.20;88.30;;;;;;957231;146;27380;-83
2022/12/15 06:38:04;;;;;;;17.40;12.00;;;-2.20;88.50;;;;;;958162;146;27435;-83
2022/12/15 06:40:30;;;;;;;18.03;11.57;;;-2.20;88.60;;;;;;946895;148;27355;-83
2022/12/15 06:42:57;;;;;;;17.77;11.57;;;-2.20;88.90;;;;;;945450;148;27277;-84
2022/12/15 06:45:23;;;;;;;17.03;11.57;;;-2.20;89.00;;;;;;946835;148;27330;-83
2022/12/15 06:47:50;;;;;;;17.57;11.13;;;-2.20;89.20;;;;;;945272;148;27292;-83
2022/12/15 06:50:17;;;;;;;20.13;11.37;;;-2.10;89.50;;;;;;946499;148;27400;-81
2022/12/15 06:52:43;;;;;;;15.87;11.70;;;-2.10;89.80;;;;;;929627;151;27426;-83
2022/12/15 06:55:10;;;;;;;14.07;10.77;;;-2.00;90.00;;;;;;932798;154;27384;-81
2022/12/15 06:57:37;;;;;;;16.73;10.90;;;-2.00;90.00;;;;;;944168;151;27290;-81
2022/12/15 07:00:03;;;;;;;21.27;12.67;;;-1.90;90.10;;;;;;945389;148;27339;-80
2022/12/15 07:02:31;;;;;;;27.10;14.37;;;-1.90;90.20;;;;;;944320;151;27449;-80
2022/12/15 07:04:56;;;;;;;24.60;13.60;;;-1.80;90.30;;;;;;943020;151;27434;-81
2022/12/15 07:07:23;;;;;;;26.40;12.97;;;-1.70;90.40;;;;;;937323;152;27344;-81
2022/12/15 07:09:49;;;;;;;17.87;11.37;;;-1.60;90.40;;;;;;947294;148;27343;-80
2022/12/15 07:12:16;;;;;;;16.40;10.97;;;-1.50;90.40;;;;;;945247;149;27445;-80
2022/12/15 07:14:43;;;;;;;14.03;11.37;;;-1.40;90.40;;;;;;940406;148;27282;-79
2022/12/15 07:17:12;;;;;;;16.30;12.30;;;-1.40;90.40;;;;;;945326;151;27348;-79
2022/12/15 07:19:39;;;;;;;16.13;11.87;;;-1.30;90.30;;;;;;928915;153;27395;-80
2022/12/15 07:22:05;;;;;;;15.67;11.50;;;-1.20;90.30;;;;;;946629;148;27378;-80
2022/12/15 07:24:32;;;;;;;14.17;10.97;;;-1.20;90.30;;;;;;940724;151;27309;-80
2022/12/15 07:26:58;;;;;;;16.53;12.10;;;-1.10;90.30;;;;;;944173;151;27424;-79
2022/12/15 07:29:25;;;;;;;16.43;10.80;;;-1.10;90.30;;;;;;941874;148;27348;-78
2022/12/15 07:31:52;;;;;;;17.80;11.73;;;-1.00;90.30;;;;;;926553;151;27435;-80
2022/12/15 07:34:18;;;;;;;17.53;11.93;;;-0.90;90.30;;;;;;932546;151;27339;-80
2022/12/15 07:36:45;;;;;;;15.63;11.70;;;-0.90;90.20;;;;;;932318;154;27395;-80
2022/12/15 07:39:11;;;;;;;17.23;11.90;;;-0.80;90.30;;;;;;933118;151;27338;-80
2022/12/15 07:41:39;;;;;;;13.40;10.83;;;-0.80;90.30;;;;;;934367;152;27442;-78
2022/12/15 07:44:05;;;;;;;16.60;11.00;;;-0.70;90.30;;;;;;933017;152;27351;-81
2022/12/15 07:46:31;;;;;;;12.53;9.63;;;-0.70;90.30;;;;;;934974;152;28338;-80
2022/12/15 07:48:58;;;;;;;15.27;11.23;;;-0.70;90.20;;;;;;933594;152;27322;-80
2022/12/15 07:51:24;;;;;;;16.40;12.23;;;-0.70;90.30;;;;;;936393;150;27342;-79
2022/12/15 07:53:51;;;;;;;18.90;12.57;;;-0.60;90.40;;;;;;938990;149;27382;-81
2022/12/15 07:56:18;;;;;;;16.70;11.47;;;-0.60;90.30;;;;;;936473;149;27412;-80
2022/12/15 07:58:44;;;;;;;16.60;12.13;;;-0.60;90.20;;;;;;939162;149;27408;-81
2022/12/15 08:01:11;;;;;;;15.20;11.77;;;-0.50;90.30;;;;;;937518;149;27326;-80
2022/12/15 08:03:37;;;;;;;17.40;11.13;;;-0.50;90.30;;;;;;937901;149;27418;-80
2022/12/15 08:06:04;;;;;;;13.97;10.60;;;-0.50;90.20;;;;;;938664;149;27828;-79
2022/12/15 08:08:30;;;;;;;15.37;11.17;;;-0.50;90.20;;;;;;939492;149;27530;-80
2022/12/15 08:10:57;;;;;;;18.80;12.60;;;-0.40;90.30;;;;;;937620;149;27301;-80
2022/12/15 08:13:24;;;;;;;16.10;10.87;;;-0.40;90.30;;;;;;938099;149;27262;-80
2022/12/15 08:15:53;;;;;;;18.73;11.80;;;-0.40;90.30;;;;;;939030;149;28239;-80
2022/12/15 08:18:20;;;;;;;14.97;10.97;;;-0.30;90.40;;;;;;936728;149;27364;-78
2022/12/15 08:20:46;;;;;;;16.40;11.53;;;-0.30;90.20;;;;;;939458;149;27438;-80
2022/12/15 08:23:13;;;;;;;18.20;12.00;;;-0.30;90.20;;;;;;935133;149;28823;-80
2022/12/15 08:25:39;;;;;;;18.00;12.17;;;-0.30;90.40;;;;;;935906;149;27317;-80
2022/12/15 08:28:06;;;;;;;18.77;12.87;;;-0.30;90.20;;;;;;937053;149;27362;-80
2022/12/15 08:30:33;;;;;;;14.73;11.77;;;-0.20;90.10;;;;;;936573;149;27323;-80
2022/12/15 08:32:59;;;;;;;16.73;12.40;;;-0.20;90.10;;;;;;938593;149;27443;-80
2022/12/15 08:35:26;;;;;;;15.13;10.67;;;-0.20;90.10;;;;;;937269;149;27371;-80
2022/12/15 08:37:52;;;;;;;17.37;12.13;;;-0.20;90.10;;;;;;936113;149;27298;-81
2022/12/15 08:40:19;;;;;;;18.23;12.50;;;-0.20;90.10;;;;;;936786;149;27378;-79
2022/12/15 08:42:45;;;;;;;15.80;11.27;;;-0.20;90.10;;;;;;936212;149;27351;-78
2022/12/15 08:45:12;;;;;;;19.87;12.43;;;-0.10;90.20;;;;;;938094;149;27357;-80
2022/12/15 08:47:39;;;;;;;17.50;12.67;;;-0.10;90.20;;;;;;936994;149;27350;-80
2022/12/15 08:50:05;;;;;;;18.77;13.17;;;-0.10;90.20;;;;;;938491;149;27313;-80
2022/12/15 08:52:32;;;;;;;16.43;11.97;;;-0.10;90.30;;;;;;931581;149;27368;-80
2022/12/15 08:54:58;;;;;;;15.97;11.70;;;0.00;90.00;;;;;;926530;152;27391;-80
2022/12/15 08:57:26;;;;;;;16.13;12.30;;;0.00;90.20;;;;;;927454;152;27293;-78
2022/12/15 08:59:52;;;;;;;16.57;11.37;;;0.00;90.40;;;;;;928080;154;27359;-80
2022/12/15 09:02:18;;;;;;;16.20;11.97;;;0.10;90.40;;;;;;928058;151;27915;-80
2022/12/15 09:04:45;;;;;;;16.07;11.50;;;0.10;90.00;;;;;;940093;148;27406;-80
2022/12/15 09:07:12;;;;;;;17.83;12.30;;;0.10;89.80;;;;;;927922;154;27381;-80
2022/12/15 09:09:38;;;;;;;17.50;12.43;;;0.10;89.70;;;;;;941677;151;27436;-80
2022/12/15 09:12:05;;;;;;;15.63;11.93;;;0.10;89.70;;;;;;940020;149;27814;-78
2022/12/15 09:14:31;;;;;;;12.83;9.73;;;0.10;89.90;;;;;;944237;149;27440;-80
2022/12/15 09:16:58;;;;;;;17.63;12.63;;;0.10;90.10;;;;;;925198;152;27381;-81
2022/12/15 09:19:24;;;;;;;16.83;12.37;;;0.20;90.10;;;;;;941589;149;27361;-81
2022/12/15 09:21:51;;;;;;;17.53;12.90;;;0.20;90.10;;;;;;929798;152;27424;-80
2022/12/15 09:24:17;;;;;;;16.10;11.83;;;0.20;90.00;;;;;;940744;148;27320;-79
2022/12/15 09:26:45;;;;;;;16.00;11.93;;;0.30;90.00;;;;;;939215;151;27328;-80
2022/12/15 09:29:12;;;;;;;13.73;11.33;;;0.30;90.00;;;;;;924330;154;27488;-80
2022/12/15 09:31:37;;;;;;;15.30;11.27;;;0.30;90.00;;;;;;924528;154;27417;-80
2022/12/15 09:34:04;;;;;;;17.13;11.77;;;0.30;89.90;;;;;;933738;151;27317;-79
2022/12/15 09:36:31;;;;;;;14.70;11.40;;;0.40;90.00;;;;;;935381;152;27681;-78
2022/12/15 09:38:57;;;;;;;13.57;11.47;;;0.40;90.10;;;;;;937117;150;27346;-80
2022/12/15 09:41:24;;;;;;;17.13;12.90;;;0.40;90.20;;;;;;935377;151;28505;-80
2022/12/15 09:43:53;;;;;;;16.67;12.10;;;0.50;90.50;;;;;;924779;153;27369;-80
2022/12/15 09:46:41;;;;;;;14.60;10.43;;;0.60;90.60;;;;;;925453;154;27443;-80
2022/12/15 09:49:10;;;;;;;15.10;11.13;;;0.60;90.50;;;;;;924543;152;27310;-80
2022/12/15 09:51:40;;;;;;;15.97;10.90;;;0.70;90.40;;;;;;926354;151;27451;-79
2022/12/15 09:54:06;;;;;;;14.90;11.07;;;0.80;90.40;;;;;;941952;148;27505;-81
2022/12/15 09:56:51;;;;;;;15.83;11.53;;;0.90;90.50;;;;;;940425;151;27297;-81
2022/12/15 09:59:33;;;;;;;14.67;11.80;;;0.90;90.40;;;;;;942505;151;27360;-81
2022/12/15 10:02:12;;;;;;;14.43;11.57;;;1.00;90.50;;;;;;941796;148;27322;-81
2022/12/15 10:04:41;;;;;;;14.40;11.50;;;1.10;90.50;;;;;;923917;154;27397;-80
2022/12/15 10:07:08;;;;;;;13.57;10.87;;;1.20;90.50;;;;;;922925;153;27719;-81
2022/12/15 10:09:34;;;;;;;13.33;11.37;;;1.20;90.40;;;;;;924848;151;27506;-81
2022/12/15 10:12:10;;;;;;;14.60;11.23;;;1.30;90.40;;;;;;926902;154;27317;-81
2022/12/15 10:14:42;;;;;;;15.30;11.43;;;1.40;90.30;;;;;;926352;153;27423;-80
2022/12/15 10:17:24;;;;;;;17.13;12.20;;;1.50;90.20;;;;;;925035;154;27286;-79
2022/12/15 10:20:11;;;;;;;18.30;12.23;;;1.50;90.20;;;;;;943004;151;27425;-81
2022/12/15 10:22:38;;;;;;;18.47;12.93;;;1.60;90.30;;;;;;906116;151;27351;-80
2022/12/15 10:25:20;;;;;;;15.43;12.03;;;1.60;90.10;;;;;;942628;151;27331;-79
2022/12/15 10:28:02;;;;;;;15.40;11.80;;;1.70;89.60;;;;;;940273;149;27378;-80
2022/12/15 10:30:28;;;;;;;14.57;11.93;;;1.70;88.90;;;;;;924271;152;27309;-80
2022/12/15 10:32:58;;;;;;;16.87;12.50;;;1.70;88.50;;;;;;943590;148;27336;-79
2022/12/15 10:35:26;;;;;;;18.17;13.00;;;1.70;88.50;;;;;;925382;154;27485;-80
2022/12/15 10:37:51;;;;;;;15.10;11.27;;;1.70;88.40;;;;;;925163;153;28566;-80
2022/12/15 10:40:18;;;;;;;14.60;11.17;;;1.70;88.30;;;;;;925594;152;27281;-80
2022/12/15 10:42:44;;;;;;;14.33;11.70;;;1.70;88.00;;;;;;925928;153;27404;-79
2022/12/15 10:45:12;;;;;;;15.70;11.30;;;1.70;88.20;;;;;;925885;152;27460;-80
2022/12/15 10:47:37;;;;;;;16.97;12.80;;;1.70;88.20;;;;;;924046;154;27434;-78
2022/12/15 10:50:22;;;;;;;18.07;13.03;;;1.70;88.10;;;;;;939040;149;27349;-79
2022/12/15 10:52:49;;;;;;;18.93;12.40;;;1.80;87.80;;;;;;933688;150;27491;-80
2022/12/15 10:55:30;;;;;;;19.67;13.13;;;1.70;87.30;;;;;;931687;150;27294;-80
2022/12/15 10:57:57;;;;;;;18.27;12.80;;;1.70;87.20;;;;;;931827;151;27474;-80
2022/12/15 11:00:26;;;;;;;17.67;13.70;;;1.70;87.60;;;;;;943867;148;27393;-78
2022/12/15 11:02:53;;;;;;;15.33;11.97;;;1.70;88.10;;;;;;944368;148;27313;-80
2022/12/15 11:05:19;;;;;;;18.37;12.93;;;1.70;88.50;;;;;;944235;148;27437;-80
2022/12/15 11:07:45;;;;;;;17.30;12.17;;;1.80;88.90;;;;;;941180;151;27414;-80
2022/12/15 11:10:24;;;;;;;22.33;13.63;;;1.80;88.80;;;;;;935663;149;27345;-78
2022/12/15 11:12:56;;;;;;;20.23;13.77;;;1.80;88.60;;;;;;937459;149;27482;-80
2022/12/15 11:15:23;;;;;;;18.23;12.33;;;1.90;88.10;;;;;;939293;149;27297;-80
2022/12/15 11:17:52;;;;;;;17.30;12.93;;;1.90;87.80;;;;;;937264;149;27683;-80
2022/12/15 11:20:19;;;;;;;20.90;13.47;;;1.90;87.70;;;;;;937205;149;27371;-79
2022/12/15 11:22:51;;;;;;;19.30;12.87;;;1.90;87.80;;;;;;937095;149;27478;-80
2022/12/15 11:25:24;;;;;;;17.20;11.83;;;1.90;87.80;;;;;;938822;149;27458;-80
2022/12/15 11:27:50;;;;;;;17.40;12.70;;;2.00;88.00;;;;;;936814;149;27423;-80
2022/12/15 11:30:17;;;;;;;23.10;14.20;;;2.00;88.30;;;;;;937338;149;27334;-78
2022/12/15 11:32:47;;;;;;;18.77;13.50;;;2.00;88.30;;;;;;937757;149;27309;-79
2022/12/15 11:35:13;;;;;;;17.00;12.40;;;2.10;88.20;;;;;;936660;149;27416;-80
2022/12/15 11:37:51;;;;;;;17.97;13.13;;;2.10;88.00;;;;;;937403;149;27399;-79
2022/12/15 11:40:23;;;;;;;15.80;12.37;;;2.10;87.80;;;;;;922896;149;28391;-80
2022/12/15 11:42:53;;;;;;;16.87;12.03;;;2.20;87.80;;;;;;938133;149;27373;-79
2022/12/15 11:45:25;;;;;;;15.53;12.13;;;2.20;87.70;;;;;;939675;149;27459;-80
2022/12/15 11:47:57;;;;;;;18.53;13.23;;;2.20;87.50;;;;;;937326;149;27391;-80
2022/12/15 11:50:33;;;;;;;18.30;12.77;;;2.20;87.30;;;;;;936546;149;27776;-79
2022/12/15 11:53:18;;;;;;;22.47;15.33;;;2.20;87.10;;;;;;945057;147;27973;-79
2022/12/15 11:55:59;;;;;;;19.80;13.67;;;2.20;87.10;;;;;;926976;147;27409;-80
2022/12/15 11:58:34;;;;;;;18.87;12.80;;;2.20;87.10;;;;;;945380;147;27333;-80
2022/12/15 12:01:25;;;;;;;19.73;13.87;;;2.20;87.10;;;;;;936930;149;27286;-79
2022/12/15 12:04:10;;;;;;;16.80;12.03;;;2.20;86.90;;;;;;939441;149;27339;-79
2022/12/15 12:06:37;;;;;;;18.63;13.30;;;2.20;86.70;;;;;;940433;149;27427;-80
2022/12/15 12:09:12;;;;;;;16.37;12.33;;;2.20;86.70;;;;;;938115;149;27397;-80
2022/12/15 12:11:48;;;;;;;20.50;12.83;;;2.20;86.90;;;;;;938314;149;28289;-80
2022/12/15 12:14:17;;;;;;;17.30;12.37;;;2.20;86.90;;;;;;936293;149;27265;-80
2022/12/15 12:17:02;;;;;;;17.63;12.63;;;2.20;87.10;;;;;;938614;149;27356;-80
2022/12/15 12:19:41;;;;;;;19.50;14.00;;;2.30;87.40;;;;;;937782;149;27278;-79
2022/12/15 12:22:13;;;;;;;19.67;13.57;;;2.30;87.10;;;;;;939220;148;27897;-79
2022/12/15 12:24:40;;;;;;;19.67;13.77;;;2.30;86.90;;;;;;943928;150;27332;-80
2022/12/15 12:27:09;;;;;;;18.73;13.77;;;2.30;86.70;;;;;;941843;151;27413;-80
2022/12/15 12:29:50;;;;;;;16.47;13.63;;;2.30;86.70;;;;;;944868;150;27437;-80
2022/12/15 12:32:26;;;;;;;18.20;12.90;;;2.30;86.40;;;;;;945528;148;27281;-80
2022/12/15 12:35:01;;;;;;;19.80;13.87;;;2.30;86.30;;;;;;944715;148;27334;-80
2022/12/15 12:37:36;;;;;;;18.97;13.33;;;2.30;86.40;;;;;;946824;151;27276;-80
2022/12/15 12:40:03;;;;;;;20.10;13.43;;;2.30;86.60;;;;;;944184;150;27402;-80
2022/12/15 12:42:35;;;;;;;19.23;13.53;;;2.30;86.70;;;;;;940075;150;27381;-80
2022/12/15 12:45:02;;;;;;;16.40;12.97;;;2.30;86.70;;;;;;945524;151;27444;-80
2022/12/15 12:47:31;;;;;;;19.27;13.80;;;2.20;86.60;;;;;;946491;150;27346;-80
2022/12/15 12:50:00;;;;;;;18.07;13.07;;;2.20;86.40;;;;;;942913;150;27352;-79
2022/12/15 12:52:30;;;;;;;17.20;12.87;;;2.20;86.30;;;;;;946457;151;27320;-80
2022/12/15 12:54:59;;;;;;;18.53;13.17;;;2.20;86.20;;;;;;945871;149;27395;-81
2022/12/15 12:57:34;;;;;;;15.63;12.23;;;2.20;86.10;;;;;;941765;148;27767;-80
2022/12/15 13:00:04;;;;;;;17.30;12.77;;;2.10;86.10;;;;;;940043;148;27333;-79
2022/12/15 13:02:30;;;;;;;18.30;13.13;;;2.10;86.00;;;;;;944910;147;27404;-81
2022/12/15 13:04:59;;;;;;;15.43;11.90;;;2.10;86.00;;;;;;937009;149;27324;-81
2022/12/15 13:07:35;;;;;;;15.40;11.77;;;2.00;86.00;;;;;;937476;149;27472;-80
2022/12/15 13:10:07;;;;;;;17.47;11.97;;;2.00;86.10;;;;;;939459;149;27406;-79
2022/12/15 13:12:46;;;;;;;16.10;11.87;;;2.00;86.20;;;;;;938822;149;27361;-81
2022/12/15 13:15:30;;;;;;;15.80;11.60;;;2.00;86.20;;;;;;938419;149;27305;-80
2022/12/15 13:18:14;;;;;;;16.00;11.73;;;1.90;85.50;;;;;;937149;149;27318;-80
2022/12/15 13:20:41;;;;;;;16.23;11.83;;;1.90;86.10;;;;;;938797;149;27441;-80
2022/12/15 13:23:23;;;;;;;16.70;12.50;;;1.90;86.10;;;;;;938561;149;27364;-81
2022/12/15 13:25:52;;;;;;;18.23;12.87;;;1.80;86.30;;;;;;936608;149;27387;-80
2022/12/15 13:28:41;;;;;;;18.17;12.37;;;1.80;86.40;;;;;;938121;149;27396;-80
2022/12/15 13:31:19;;;;;;;16.83;11.60;;;1.80;86.60;;;;;;937072;149;27604;-80
2022/12/15 13:33:47;;;;;;;13.47;11.00;;;1.80;86.50;;;;;;938375;149;27306;-80
2022/12/15 13:36:32;;;;;;;15.57;11.67;;;1.80;86.40;;;;;;937987;149;27445;-81
2022/12/15 13:38:58;;;;;;;15.97;11.50;;;1.70;85.90;;;;;;931908;149;27328;-80
2022/12/15 13:41:25;;;;;;;16.13;11.17;;;1.70;85.60;;;;;;938226;149;27357;-80
2022/12/15 13:43:51;;;;;;;14.97;10.83;;;1.60;85.40;;;;;;938596;149;27330;-80
2022/12/15 13:46:24;;;;;;;15.80;11.17;;;1.50;85.30;;;;;;937723;149;27353;-82
2022/12/15 13:48:50;;;;;;;17.50;11.57;;;1.50;85.30;;;;;;936032;149;27285;-82
2022/12/15 13:51:29;;;;;;;16.03;11.40;;;1.40;85.20;;;;;;930648;149;27263;-82
2022/12/15 13:53:56;;;;;;;17.37;12.03;;;1.30;85.30;;;;;;936544;149;27369;-82
2022/12/15 13:56:34;;;;;;;17.67;12.50;;;1.20;85.30;;;;;;915416;151;27330;-82
2022/12/15 13:59:01;;;;;;;16.60;12.30;;;1.10;85.30;;;;;;924619;154;27365;-82
2022/12/15 14:01:27;;;;;;;17.73;12.93;;;1.00;85.50;;;;;;925657;153;27360;-82
2022/12/15 14:04:03;;;;;;;17.07;11.93;;;1.00;85.60;;;;;;939684;151;27312;-81
2022/12/15 14:06:29;;;;;;;20.70;13.70;;;0.90;85.70;;;;;;942778;151;27366;-82
2022/12/15 14:08:56;;;;;;;19.47;12.87;;;0.80;85.90;;;;;;938231;151;27363;-79
2022/12/15 14:11:22;;;;;;;19.90;12.77;;;0.80;86.10;;;;;;941835;148;27444;-80
2022/12/15 14:13:49;;;;;;;21.33;13.47;;;0.70;86.20;;;;;;923349;153;27391;-82
2022/12/15 14:16:18;;;;;;;19.20;13.50;;;0.70;86.40;;;;;;924520;152;27340;-82
2022/12/15 14:18:45;;;;;;;20.67;13.60;;;0.60;86.50;;;;;;923563;154;27305;-81
2022/12/15 14:21:20;;;;;;;18.47;12.70;;;0.60;86.70;;;;;;936927;148;27254;-81
2022/12/15 14:23:47;;;;;;;19.43;13.53;;;0.50;86.80;;;;;;939671;149;27508;-82
2022/12/15 14:26:14;;;;;;;19.37;13.20;;;0.50;87.00;;;;;;938925;151;27351;-81
2022/12/15 14:28:40;;;;;;;17.40;12.30;;;0.50;87.20;;;;;;926320;154;27339;-82
2022/12/15 14:31:07;;;;;;;15.57;11.43;;;0.40;87.40;;;;;;921809;153;27308;-82
2022/12/15 14:33:33;;;;;;;19.37;12.27;;;0.40;87.60;;;;;;918573;152;27323;-79
2022/12/15 14:36:00;;;;;;;18.27;11.77;;;0.40;87.80;;;;;;925150;152;27375;-82
2022/12/15 14:38:42;;;;;;;19.87;12.77;;;0.40;87.90;;;;;;925941;154;27421;-82
2022/12/15 14:41:09;;;;;;;19.57;13.13;;;0.40;88.10;;;;;;923497;154;27355;-81
2022/12/15 14:43:35;;;;;;;24.63;14.73;;;0.30;88.00;;;;;;922474;153;27343;-81
2022/12/15 14:46:04;;;;;;;18.43;12.13;;;0.30;88.00;;;;;;923241;153;27332;-81
2022/12/15 14:48:31;;;;;;;18.03;13.67;;;0.30;88.10;;;;;;923493;153;28152;-80
2022/12/15 14:50:57;;;;;;;20.40;12.63;;;0.30;88.10;;;;;;924541;154;27346;-80
2022/12/15 14:53:24;;;;;;;24.53;15.20;;;0.30;88.30;;;;;;924680;152;27433;-79
2022/12/15 14:55:50;;;;;;;23.27;15.33;;;0.30;88.30;;;;;;929490;151;27393;-80
2022/12/15 14:58:26;;;;;;;24.83;16.87;;;0.20;88.20;;;;;;932698;149;27353;-80
2022/12/15 15:00:52;;;;;;;23.50;14.80;;;0.20;88.20;;;;;;925306;153;27455;-78
2022/12/15 15:03:22;;;;;;;26.83;16.80;;;0.20;88.10;;;;;;926332;153;27377;-80